Time;durP1;ratioP1;P1;durP2;ratioP2;P2;SDS_P1;SDS_P2;PMS_P1;PMS_P2;Temp;Humidity;BMP_temperature;BMP_pressure;BME280_temperature;BME280_humidity;BME280_pressure;Samples;Min_cycle;Max_cycle;Signal;HPM_P1;HPM_P2
2023/03/09 00:01:50;;;;;;;29.35;7.40;;;11.80;99.90;;;;;;4932155;28;20044;-73
2023/03/09 00:04:16;;;;;;;19.23;7.70;;;11.80;99.90;;;;;;4933390;29;20068;-73
2023/03/09 00:06:43;;;;;;;22.00;6.43;;;11.70;99.90;;;;;;4936313;29;20477;-73
2023/03/09 00:09:09;;;;;;;21.92;6.03;;;11.80;99.90;;;;;;4915582;29;20050;-73
2023/03/09 00:11:35;;;;;;;25.67;6.72;;;11.80;99.90;;;;;;4921418;29;20476;-73
2023/03/09 00:14:01;;;;;;;23.70;6.07;;;11.80;99.90;;;;;;4935536;29;20043;-73
2023/03/09 00:16:28;;;;;;;22.17;6.32;;;11.80;99.90;;;;;;4933946;29;20523;-73
2023/03/09 00:18:57;;;;;;;19.80;5.43;;;11.70;99.90;;;;;;4934335;29;20039;-73
2023/03/09 00:21:41;;;;;;;23.98;6.85;;;11.70;99.90;;;;;;4932526;29;20059;-73
2023/03/09 00:24:15;;;;;;;17.58;5.47;;;11.70;99.90;;;;;;4928524;28;20401;-73
2023/03/09 00:26:43;;;;;;;29.45;6.10;;;11.80;99.90;;;;;;4932739;29;20028;-73
2023/03/09 00:29:11;;;;;;;21.30;5.60;;;11.80;99.90;;;;;;4902137;29;20032;-73
2023/03/09 00:31:37;;;;;;;23.17;6.65;;;11.70;99.90;;;;;;4909978;29;20424;-73
2023/03/09 00:34:03;;;;;;;24.98;6.50;;;11.70;99.90;;;;;;4932848;29;20039;-73
2023/03/09 00:36:30;;;;;;;27.77;6.50;;;11.70;99.90;;;;;;4926724;29;20039;-72
2023/03/09 00:38:56;;;;;;;24.05;6.60;;;11.60;99.90;;;;;;4927035;29;20039;-73
2023/03/09 00:41:23;;;;;;;20.23;7.15;;;11.60;99.90;;;;;;4908460;29;20032;-73
2023/03/09 00:43:49;;;;;;;22.77;6.18;;;11.60;99.90;;;;;;4926233;29;20051;-73
2023/03/09 00:46:15;;;;;;;20.35;7.22;;;11.60;99.90;;;;;;4932567;29;20051;-73
2023/03/09 00:48:42;;;;;;;24.98;7.70;;;11.60;99.90;;;;;;4933610;29;20044;-73
2023/03/09 00:51:08;;;;;;;30.42;7.60;;;11.60;99.90;;;;;;4917323;29;20035;-73
2023/03/09 00:53:34;;;;;;;30.00;7.75;;;11.60;99.90;;;;;;4934875;29;20461;-73
2023/03/09 00:56:15;;;;;;;26.13;7.32;;;11.60;99.90;;;;;;4932485;29;20412;-73
2023/03/09 00:58:41;;;;;;;28.05;7.10;;;11.60;99.90;;;;;;4919024;29;20038;-73
2023/03/09 01:01:08;;;;;;;25.25;7.13;;;11.60;99.90;;;;;;4941408;28;20397;-73
2023/03/09 01:03:35;;;;;;;27.30;7.00;;;11.60;99.90;;;;;;4938924;29;20058;-73
2023/03/09 01:06:01;;;;;;;27.77;7.80;;;11.60;99.90;;;;;;4932895;29;20032;-73
2023/03/09 01:08:27;;;;;;;32.58;6.72;;;11.70;99.90;;;;;;4916654;29;20063;-73
2023/03/09 01:10:53;;;;;;;23.02;6.65;;;11.70;99.90;;;;;;4935225;29;20043;-73
2023/03/09 01:13:19;;;;;;;26.55;6.47;;;11.70;99.90;;;;;;4935754;29;20043;-73
2023/03/09 01:15:45;;;;;;;24.23;6.60;;;11.60;99.90;;;;;;4935124;28;20444;-73
2023/03/09 01:18:11;;;;;;;31.30;7.55;;;11.60;99.90;;;;;;4935388;29;20023;-73
2023/03/09 01:20:38;;;;;;;33.75;7.20;;;11.70;99.90;;;;;;4932834;29;20032;-72
2023/03/09 01:23:04;;;;;;;25.10;6.72;;;11.70;99.90;;;;;;4933931;29;20380;-72
2023/03/09 01:25:30;;;;;;;31.58;7.05;;;11.70;99.90;;;;;;4930766;29;20040;-73
2023/03/09 01:27:56;;;;;;;23.70;8.27;;;11.70;99.90;;;;;;4932376;29;20085;-73
2023/03/09 01:30:22;;;;;;;30.33;7.57;;;11.70;99.90;;;;;;4933047;28;20043;-73
2023/03/09 01:32:48;;;;;;;33.63;8.23;;;11.70;99.90;;;;;;4933772;29;20381;-72
2023/03/09 01:35:14;;;;;;;26.23;7.80;;;11.70;99.90;;;;;;4933053;29;20035;-73
2023/03/09 01:37:40;;;;;;;32.20;9.13;;;11.70;99.90;;;;;;4905256;29;20032;-73
2023/03/09 01:40:07;;;;;;;30.33;7.93;;;11.80;99.90;;;;;;4929142;29;20039;-73
2023/03/09 01:42:34;;;;;;;26.58;6.82;;;11.80;99.90;;;;;;4930654;29;20093;-73
2023/03/09 01:45:18;;;;;;;32.42;7.45;;;11.80;99.90;;;;;;4932779;29;20036;-73
2023/03/09 01:47:45;;;;;;;30.55;6.78;;;11.80;99.90;;;;;;4920480;29;20046;-73
2023/03/09 01:50:15;;;;;;;33.92;6.80;;;11.80;99.90;;;;;;4933844;29;20421;-73
2023/03/09 01:52:42;;;;;;;35.75;7.28;;;11.80;99.90;;;;;;4917376;29;20039;-73
2023/03/09 01:55:14;;;;;;;23.00;7.25;;;11.80;99.90;;;;;;4932706;29;20032;-73
2023/03/09 01:57:53;;;;;;;28.40;6.95;;;11.80;99.90;;;;;;4931803;29;20028;-73
2023/03/09 02:00:21;;;;;;;24.90;6.38;;;11.80;99.90;;;;;;4918135;28;20038;-73
2023/03/09 02:02:50;;;;;;;27.33;7.03;;;11.90;99.90;;;;;;4932287;29;20019;-73
2023/03/09 02:05:19;;;;;;;26.73;7.28;;;11.80;99.90;;;;;;4918586;29;20035;-73
2023/03/09 02:07:46;;;;;;;27.08;7.45;;;11.90;99.90;;;;;;4933134;29;20027;-72
2023/03/09 02:10:30;;;;;;;31.75;7.82;;;11.90;99.90;;;;;;4934269;29;20052;-73
2023/03/09 02:13:10;;;;;;;32.05;8.10;;;11.80;99.90;;;;;;4930855;29;20035;-72
2023/03/09 02:15:36;;;;;;;35.08;7.45;;;11.90;99.90;;;;;;4917364;29;20039;-73
2023/03/09 02:18:03;;;;;;;34.03;7.75;;;11.90;99.90;;;;;;4928367;29;20031;-72
2023/03/09 02:20:54;;;;;;;36.08;7.38;;;11.90;99.90;;;;;;4926854;29;20042;-73
2023/03/09 02:23:38;;;;;;;29.95;7.80;;;11.90;99.90;;;;;;4929413;29;20063;-73
2023/03/09 02:26:08;;;;;;;41.20;8.40;;;11.90;99.90;;;;;;4920787;29;20032;-72
2023/03/09 02:28:34;;;;;;;36.78;7.72;;;12.00;99.90;;;;;;4922095;29;20059;-72
2023/03/09 02:31:00;;;;;;;35.60;7.80;;;11.90;99.90;;;;;;4933658;28;20031;-72
2023/03/09 02:33:28;;;;;;;33.40;7.97;;;11.90;99.90;;;;;;4932250;29;20039;-73
2023/03/09 02:35:55;;;;;;;33.30;7.50;;;11.90;99.90;;;;;;4931486;29;20030;-73
2023/03/09 02:38:21;;;;;;;31.08;7.63;;;11.90;99.90;;;;;;4934620;29;20051;-73
2023/03/09 02:40:48;;;;;;;40.55;8.38;;;12.00;99.90;;;;;;4932531;29;20035;-73
2023/03/09 02:43:14;;;;;;;40.85;8.63;;;11.90;99.90;;;;;;4931115;29;20396;-73
2023/03/09 02:45:40;;;;;;;38.22;8.25;;;11.90;99.90;;;;;;4926447;29;20031;-72
2023/03/09 02:48:06;;;;;;;39.38;8.45;;;12.00;99.90;;;;;;4933328;29;20046;-73
2023/03/09 02:50:32;;;;;;;33.20;8.50;;;12.00;99.90;;;;;;4932991;29;20397;-73
2023/03/09 02:53:00;;;;;;;34.45;7.78;;;12.00;99.90;;;;;;4931395;29;20034;-73
2023/03/09 02:55:26;;;;;;;34.63;7.57;;;12.00;99.90;;;;;;4932790;29;20035;-72
2023/03/09 02:57:52;;;;;;;35.80;9.07;;;12.00;99.90;;;;;;4931879;29;20051;-72
2023/03/09 03:00:21;;;;;;;30.15;8.57;;;12.00;99.90;;;;;;4925496;28;20031;-73
2023/03/09 03:02:47;;;;;;;40.53;8.48;;;12.00;99.90;;;;;;4923503;29;20046;-73
2023/03/09 03:05:13;;;;;;;38.33;8.98;;;12.00;99.90;;;;;;4934934;29;20027;-73
2023/03/09 03:07:39;;;;;;;41.28;8.82;;;12.00;99.90;;;;;;4934705;29;20047;-73
2023/03/09 03:10:06;;;;;;;38.30;8.25;;;12.00;99.90;;;;;;4932194;29;20455;-72
2023/03/09 03:12:32;;;;;;;37.97;8.27;;;12.00;99.90;;;;;;4932934;29;20047;-72
2023/03/09 03:14:58;;;;;;;32.05;7.65;;;12.10;99.90;;;;;;4932279;29;20039;-72
2023/03/09 03:17:24;;;;;;;34.40;8.45;;;12.10;99.90;;;;;;4932433;28;20036;-72
2023/03/09 03:19:51;;;;;;;38.85;9.93;;;12.10;99.90;;;;;;4918069;29;20092;-72
2023/03/09 03:22:17;;;;;;;48.75;9.45;;;12.10;99.90;;;;;;4933309;29;20440;-72
2023/03/09 03:24:43;;;;;;;45.78;9.48;;;12.00;99.90;;;;;;4929819;29;20044;-72
2023/03/09 03:27:09;;;;;;;42.42;9.75;;;12.00;99.90;;;;;;4929215;29;20039;-72
2023/03/09 03:29:36;;;;;;;41.58;9.38;;;12.00;99.90;;;;;;4933022;29;20048;-72
2023/03/09 03:32:02;;;;;;;36.45;8.25;;;12.00;99.90;;;;;;4930938;29;20493;-72
2023/03/09 03:34:28;;;;;;;38.42;8.73;;;12.00;99.90;;;;;;4934467;29;20051;-72
2023/03/09 03:36:55;;;;;;;41.97;9.00;;;12.00;99.90;;;;;;4932224;29;20405;-72
2023/03/09 03:39:21;;;;;;;30.83;8.48;;;12.10;99.90;;;;;;4915956;29;20066;-72
2023/03/09 03:41:47;;;;;;;50.53;9.13;;;12.00;99.90;;;;;;4933994;29;20474;-72
2023/03/09 03:44:13;;;;;;;38.20;9.63;;;12.00;99.90;;;;;;4932775;29;20043;-72
2023/03/09 03:46:39;;;;;;;40.53;10.10;;;12.00;99.90;;;;;;4929721;28;20047;-73
2023/03/09 03:49:05;;;;;;;46.17;8.93;;;12.10;99.90;;;;;;4933310;29;20405;-73
2023/03/09 03:51:31;;;;;;;48.92;10.27;;;12.00;99.90;;;;;;4925395;29;20035;-73
2023/03/09 03:53:58;;;;;;;35.95;8.50;;;12.00;99.90;;;;;;4925620;29;20035;-72
2023/03/09 03:56:24;;;;;;;47.80;9.55;;;12.00;99.90;;;;;;4928691;29;20404;-72
2023/03/09 03:58:50;;;;;;;40.00;8.93;;;12.00;99.90;;;;;;4930873;29;20062;-72
2023/03/09 04:01:16;;;;;;;57.50;10.77;;;12.00;99.90;;;;;;4931968;28;20720;-72
2023/03/09 04:03:42;;;;;;;49.63;9.65;;;12.00;99.90;;;;;;4936178;29;20035;-72
2023/03/09 04:06:08;;;;;;;48.50;9.73;;;12.00;99.90;;;;;;4934541;29;20035;-72
2023/03/09 04:08:34;;;;;;;57.10;11.32;;;12.00;99.90;;;;;;4932750;29;20548;-72
2023/03/09 04:11:09;;;;;;;40.72;9.68;;;12.00;99.90;;;;;;4924358;29;20512;-72
2023/03/09 04:13:35;;;;;;;44.17;10.32;;;12.00;99.90;;;;;;4934293;29;20047;-73
2023/03/09 04:16:01;;;;;;;48.08;10.10;;;12.00;99.90;;;;;;4929414;28;20043;-73
2023/03/09 04:18:28;;;;;;;46.03;10.18;;;12.00;99.90;;;;;;4936101;29;20051;-72
2023/03/09 04:20:54;;;;;;;49.40;11.40;;;12.00;99.90;;;;;;4937318;29;20032;-72
2023/03/09 04:23:20;;;;;;;45.05;9.55;;;12.00;99.90;;;;;;4930272;29;20035;-72
2023/03/09 04:26:00;;;;;;;47.65;10.35;;;12.00;99.90;;;;;;4928506;29;20043;-72
2023/03/09 04:28:26;;;;;;;51.53;10.50;;;12.00;99.90;;;;;;4933000;29;20053;-72
2023/03/09 04:30:52;;;;;;;40.65;9.85;;;12.00;99.90;;;;;;4935162;28;20043;-72
2023/03/09 04:33:18;;;;;;;50.38;9.80;;;12.00;99.90;;;;;;4918439;29;20401;-72
2023/03/09 04:35:45;;;;;;;63.17;10.70;;;12.00;99.90;;;;;;4934396;29;20057;-72
2023/03/09 04:38:11;;;;;;;41.60;10.82;;;12.10;99.90;;;;;;4932745;29;20063;-73
2023/03/09 04:40:38;;;;;;;39.20;9.88;;;12.00;99.90;;;;;;4934395;29;20035;-72
2023/03/09 04:43:04;;;;;;;42.70;10.23;;;12.00;99.90;;;;;;4935480;29;20032;-73
2023/03/09 04:45:30;;;;;;;43.40;10.18;;;12.00;99.90;;;;;;4935228;28;20063;-73
2023/03/09 04:47:56;;;;;;;52.88;10.85;;;12.00;99.90;;;;;;4936064;29;20038;-73
2023/03/09 04:50:22;;;;;;;54.00;9.98;;;12.00;99.90;;;;;;4934178;29;20428;-72
2023/03/09 04:52:49;;;;;;;57.30;10.63;;;12.00;99.90;;;;;;4935713;29;20035;-72
2023/03/09 04:55:16;;;;;;;59.22;10.38;;;12.00;99.90;;;;;;4936288;29;20050;-73
2023/03/09 04:57:42;;;;;;;54.72;10.65;;;12.00;99.90;;;;;;4934437;29;20019;-72
2023/03/09 05:00:10;;;;;;;54.17;10.23;;;12.00;99.90;;;;;;4928236;29;20031;-72
2023/03/09 05:02:40;;;;;;;54.50;10.18;;;12.00;99.90;;;;;;4916815;29;20028;-72
2023/03/09 05:05:07;;;;;;;49.85;9.68;;;12.00;99.90;;;;;;4932320;29;20393;-72
2023/03/09 05:07:33;;;;;;;47.95;9.55;;;12.00;99.90;;;;;;4934301;29;20035;-72
2023/03/09 05:09:59;;;;;;;40.70;9.82;;;11.90;99.90;;;;;;4934856;29;20052;-72
2023/03/09 05:12:31;;;;;;;50.50;10.23;;;11.90;99.90;;;;;;4941097;29;20023;-72
2023/03/09 05:15:00;;;;;;;49.67;9.77;;;11.90;99.90;;;;;;4936820;29;20020;-72
2023/03/09 05:17:26;;;;;;;58.63;9.98;;;11.90;99.90;;;;;;4936155;29;20039;-72
2023/03/09 05:19:52;;;;;;;54.42;10.05;;;11.90;99.90;;;;;;4914749;29;20428;-72
2023/03/09 05:22:18;;;;;;;48.97;9.43;;;11.90;99.90;;;;;;4934672;29;20035;-72
2023/03/09 05:24:44;;;;;;;47.35;9.32;;;11.90;99.90;;;;;;4934330;29;20046;-72
2023/03/09 05:27:12;;;;;;;43.85;9.55;;;11.80;99.90;;;;;;4936176;29;20036;-72
2023/03/09 05:29:39;;;;;;;40.80;9.27;;;11.80;99.90;;;;;;4919629;29;20042;-73
2023/03/09 05:32:05;;;;;;;47.00;9.38;;;11.80;99.90;;;;;;4934982;28;20044;-72
2023/03/09 05:34:32;;;;;;;43.30;9.57;;;11.80;99.90;;;;;;4936570;29;20035;-72
2023/03/09 05:36:58;;;;;;;48.85;9.88;;;11.80;99.90;;;;;;4935365;29;20027;-72
2023/03/09 05:39:24;;;;;;;55.92;12.15;;;11.80;99.90;;;;;;4935012;29;20039;-72
2023/03/09 05:41:50;;;;;;;45.50;9.18;;;11.70;99.90;;;;;;4936094;29;20028;-72
2023/03/09 05:44:16;;;;;;;45.83;9.15;;;11.70;99.90;;;;;;4936056;29;20036;-72
2023/03/09 05:46:42;;;;;;;47.40;10.48;;;11.70;99.90;;;;;;4935097;28;20039;-73
2023/03/09 05:49:10;;;;;;;57.88;9.68;;;11.70;99.90;;;;;;4934649;29;20058;-72
2023/03/09 05:51:36;;;;;;;56.20;9.15;;;11.70;99.90;;;;;;4934305;29;20024;-73
2023/03/09 05:54:02;;;;;;;45.65;9.13;;;11.70;99.90;;;;;;4934008;29;20039;-72
2023/03/09 05:56:28;;;;;;;42.47;9.90;;;11.70;99.90;;;;;;4934371;29;20394;-72
2023/03/09 05:58:56;;;;;;;63.28;9.85;;;11.70;99.90;;;;;;4936143;29;20040;-72
2023/03/09 06:01:24;;;;;;;40.72;9.10;;;11.60;99.90;;;;;;4943780;28;20054;-73
2023/03/09 06:03:50;;;;;;;40.35;9.90;;;11.60;99.90;;;;;;4938475;29;20031;-73
2023/03/09 06:06:16;;;;;;;44.15;9.23;;;11.60;99.90;;;;;;4917340;29;20036;-73
2023/03/09 06:08:42;;;;;;;53.42;10.95;;;11.60;99.90;;;;;;4935615;29;20142;-72
2023/03/09 06:11:09;;;;;;;54.15;9.85;;;11.50;99.90;;;;;;4935324;29;20050;-72
2023/03/09 06:13:35;;;;;;;54.88;9.73;;;11.50;99.90;;;;;;4954348;29;20054;-72
2023/03/09 06:16:08;;;;;;;49.28;9.05;;;11.50;99.90;;;;;;4935347;28;20028;-72
2023/03/09 06:18:34;;;;;;;46.05;9.32;;;11.50;99.90;;;;;;4934222;29;20032;-72
2023/03/09 06:21:04;;;;;;;52.17;8.95;;;11.50;99.90;;;;;;4933751;29;20036;-72
2023/03/09 06:23:30;;;;;;;50.75;10.18;;;11.50;99.90;;;;;;4933883;29;20258;-72
2023/03/09 06:25:56;;;;;;;45.58;9.40;;;11.50;99.90;;;;;;4934235;29;20048;-72
2023/03/09 06:28:23;;;;;;;43.30;9.02;;;11.50;99.90;;;;;;4934400;29;20035;-72
2023/03/09 06:30:49;;;;;;;51.28;10.13;;;11.50;99.90;;;;;;4935162;28;20038;-72
2023/03/09 06:33:15;;;;;;;54.15;9.93;;;11.50;99.90;;;;;;4935438;29;20040;-73
2023/03/09 06:35:41;;;;;;;37.58;8.52;;;11.50;99.90;;;;;;4933846;29;20035;-72
2023/03/09 06:38:07;;;;;;;49.22;9.48;;;11.50;99.90;;;;;;4934437;29;20044;-72
2023/03/09 06:40:33;;;;;;;50.25;10.20;;;11.50;99.90;;;;;;4935223;29;20028;-72
2023/03/09 06:43:00;;;;;;;49.50;9.50;;;11.50;99.90;;;;;;4934192;29;20032;-72
2023/03/09 06:45:27;;;;;;;58.13;10.25;;;11.60;99.90;;;;;;4934328;28;20031;-72
2023/03/09 06:47:54;;;;;;;47.58;9.30;;;11.60;99.90;;;;;;4935201;29;20032;-72
2023/03/09 06:50:21;;;;;;;51.25;9.43;;;11.60;99.90;;;;;;4933400;29;20050;-73
2023/03/09 06:52:47;;;;;;;51.08;10.98;;;11.60;99.90;;;;;;4934114;29;20027;-72
2023/03/09 06:55:13;;;;;;;58.42;10.30;;;11.70;99.90;;;;;;4934853;29;20027;-72
2023/03/09 06:57:39;;;;;;;68.22;11.85;;;11.70;99.90;;;;;;4913538;29;20043;-72
2023/03/09 07:00:07;;;;;;;57.05;9.23;;;11.70;99.90;;;;;;4915724;29;20040;-72
2023/03/09 07:02:33;;;;;;;58.70;10.73;;;11.70;99.90;;;;;;4925703;29;20024;-72
2023/03/09 07:04:59;;;;;;;53.78;10.15;;;11.70;99.90;;;;;;4931354;29;20035;-72
2023/03/09 07:07:25;;;;;;;50.58;10.27;;;11.70;99.90;;;;;;4934996;29;20038;-72
2023/03/09 07:09:51;;;;;;;53.55;11.35;;;11.80;99.90;;;;;;4933286;29;20056;-72
2023/03/09 07:12:17;;;;;;;59.20;10.73;;;11.80;99.90;;;;;;4941284;29;20034;-72
2023/03/09 07:14:45;;;;;;;52.28;10.25;;;11.80;99.90;;;;;;4944444;29;20036;-72
2023/03/09 07:17:14;;;;;;;49.35;10.60;;;11.80;99.90;;;;;;4917773;29;20039;-72
2023/03/09 07:19:40;;;;;;;50.08;10.40;;;11.80;99.90;;;;;;4934234;29;20036;-72
2023/03/09 07:22:07;;;;;;;53.75;10.43;;;11.90;99.90;;;;;;4933047;29;20504;-72
2023/03/09 07:24:36;;;;;;;48.75;9.20;;;11.90;99.90;;;;;;4934448;29;20027;-72
2023/03/09 07:27:03;;;;;;;52.88;10.05;;;11.90;99.90;;;;;;4934484;29;20028;-72
2023/03/09 07:29:29;;;;;;;51.88;10.68;;;11.90;99.90;;;;;;4932872;29;20039;-72
2023/03/09 07:31:55;;;;;;;43.22;9.95;;;11.90;99.90;;;;;;4932905;29;20043;-72
2023/03/09 07:34:21;;;;;;;62.25;10.02;;;12.00;99.90;;;;;;4935366;29;20041;-72
2023/03/09 07:36:48;;;;;;;47.83;10.98;;;12.00;99.90;;;;;;4936597;29;20024;-72
2023/03/09 07:39:14;;;;;;;49.67;10.68;;;12.00;99.90;;;;;;4936625;29;20044;-73
2023/03/09 07:41:41;;;;;;;52.42;9.77;;;12.00;99.90;;;;;;4934597;29;20036;-72
2023/03/09 07:44:08;;;;;;;55.53;11.88;;;12.00;99.90;;;;;;4933894;29;20031;-72
2023/03/09 07:46:34;;;;;;;59.72;10.52;;;12.10;99.90;;;;;;4937151;28;20054;-72
2023/03/09 07:49:00;;;;;;;47.63;10.77;;;12.10;99.90;;;;;;4938240;29;20031;-73
2023/03/09 07:51:26;;;;;;;46.95;10.70;;;12.20;99.90;;;;;;4934771;29;20515;-73
2023/03/09 07:53:52;;;;;;;63.17;11.95;;;12.20;99.90;;;;;;4933103;29;20032;-73
2023/03/09 07:56:18;;;;;;;43.45;9.90;;;12.20;99.90;;;;;;4920562;29;20401;-72
2023/03/09 07:58:46;;;;;;;53.75;11.70;;;12.30;99.90;;;;;;4937828;29;20028;-73
2023/03/09 08:01:14;;;;;;;52.47;12.05;;;12.30;99.90;;;;;;4944293;28;20051;-72
2023/03/09 08:03:40;;;;;;;59.75;11.77;;;12.30;99.90;;;;;;4934271;29;20040;-72
2023/03/09 08:06:07;;;;;;;47.42;10.70;;;12.40;99.90;;;;;;4938175;29;20043;-72
2023/03/09 08:08:33;;;;;;;55.22;11.48;;;12.40;99.90;;;;;;4938016;29;20038;-72
2023/03/09 08:10:59;;;;;;;53.08;11.68;;;12.40;99.90;;;;;;4937978;29;20067;-72
2023/03/09 08:13:25;;;;;;;50.33;11.73;;;12.50;99.90;;;;;;4955591;29;20404;-72
2023/03/09 08:15:51;;;;;;;62.50;12.20;;;12.60;99.90;;;;;;4951426;28;20048;-72
2023/03/09 08:18:18;;;;;;;48.88;10.20;;;12.60;99.90;;;;;;4934084;29;20039;-72
2023/03/09 08:20:44;;;;;;;43.47;10.70;;;12.80;99.90;;;;;;4936414;29;20035;-73
2023/03/09 08:23:10;;;;;;;48.72;10.77;;;13.00;99.90;;;;;;4921035;29;20039;-72
2023/03/09 08:25:37;;;;;;;45.83;11.20;;;13.00;99.90;;;;;;4937859;29;20040;-73
2023/03/09 08:28:04;;;;;;;46.83;10.82;;;13.10;99.90;;;;;;4936587;29;20039;-73
2023/03/09 08:30:30;;;;;;;43.63;10.60;;;13.10;99.90;;;;;;4936145;28;20036;-72
2023/03/09 08:32:57;;;;;;;66.10;12.35;;;13.10;99.90;;;;;;4919337;29;20034;-73
2023/03/09 08:35:25;;;;;;;55.10;10.77;;;13.10;99.90;;;;;;4935419;29;20031;-73
2023/03/09 08:37:51;;;;;;;47.30;10.88;;;13.10;99.90;;;;;;4937649;29;20119;-72
2023/03/09 08:40:17;;;;;;;50.22;10.68;;;13.10;99.90;;;;;;4937595;29;20028;-73
2023/03/09 08:42:43;;;;;;;50.25;11.57;;;13.30;99.90;;;;;;4937364;29;20036;-73
2023/03/09 08:45:10;;;;;;;45.58;10.30;;;13.50;99.90;;;;;;4935803;28;20031;-72
2023/03/09 08:47:36;;;;;;;53.28;11.32;;;13.60;99.90;;;;;;4933642;29;20036;-72
2023/03/09 08:50:03;;;;;;;47.25;10.63;;;13.70;99.90;;;;;;4936904;29;20386;-73
2023/03/09 08:52:34;;;;;;;46.60;10.57;;;13.60;99.90;;;;;;4935194;29;20024;-73
2023/03/09 08:55:01;;;;;;;43.75;10.38;;;13.60;99.90;;;;;;4935574;29;20032;-73
2023/03/09 08:57:27;;;;;;;47.55;10.15;;;13.70;99.90;;;;;;4934912;29;20413;-73
2023/03/09 08:59:54;;;;;;;41.03;10.07;;;13.70;99.90;;;;;;4932303;29;20500;-72
2023/03/09 09:02:20;;;;;;;45.45;10.20;;;13.70;99.90;;;;;;4944520;29;20482;-72
2023/03/09 09:04:46;;;;;;;48.33;11.00;;;13.60;99.90;;;;;;4936582;29;20028;-73
2023/03/09 09:07:14;;;;;;;49.80;11.15;;;13.50;99.90;;;;;;4919612;29;20047;-73
2023/03/09 09:09:40;;;;;;;42.30;9.57;;;13.40;99.90;;;;;;4904182;29;20054;-73
2023/03/09 09:12:07;;;;;;;46.47;11.48;;;13.30;99.90;;;;;;4926417;29;20023;-73
2023/03/09 09:14:33;;;;;;;52.08;13.43;;;13.30;99.90;;;;;;4943676;29;20031;-73
2023/03/09 09:17:00;;;;;;;41.78;10.30;;;13.20;99.90;;;;;;4935787;29;20028;-74
2023/03/09 09:19:26;;;;;;;45.50;11.02;;;13.10;99.90;;;;;;4929670;29;20404;-73
2023/03/09 09:21:54;;;;;;;35.83;9.57;;;13.10;99.90;;;;;;4915613;29;20047;-73
2023/03/09 09:24:21;;;;;;;36.10;8.63;;;13.10;99.90;;;;;;4917688;29;20032;-73
2023/03/09 09:26:47;;;;;;;36.92;8.82;;;13.00;99.90;;;;;;4916689;29;20039;-74
2023/03/09 09:29:13;;;;;;;35.80;8.95;;;13.00;99.90;;;;;;4935131;29;20051;-74
2023/03/09 09:31:39;;;;;;;31.48;9.00;;;13.10;99.90;;;;;;4935867;28;20493;-74
2023/03/09 09:34:06;;;;;;;36.45;8.98;;;13.20;99.90;;;;;;4934795;29;20039;-74
2023/03/09 09:36:34;;;;;;;29.13;9.55;;;13.20;99.90;;;;;;4936634;29;20046;-74
2023/03/09 09:39:01;;;;;;;27.35;8.70;;;13.40;99.90;;;;;;4936121;29;20040;-75
2023/03/09 09:41:44;;;;;;;28.77;9.70;;;13.70;99.90;;;;;;4935819;29;20043;-74
2023/03/09 09:44:16;;;;;;;28.92;8.65;;;13.90;99.90;;;;;;4934309;29;20040;-73
2023/03/09 09:46:42;;;;;;;24.10;8.27;;;14.10;99.90;;;;;;4934535;28;20047;-74
2023/03/09 09:49:14;;;;;;;30.13;8.43;;;14.20;99.90;;;;;;4901370;29;20059;-74
2023/03/09 09:51:42;;;;;;;23.02;9.68;;;14.30;99.90;;;;;;4919333;29;20038;-73
2023/03/09 09:54:27;;;;;;;31.27;9.80;;;14.30;99.90;;;;;;4932632;29;20031;-73
2023/03/09 09:57:03;;;;;;;26.98;9.50;;;14.40;99.90;;;;;;4924368;29;20040;-74
2023/03/09 09:59:40;;;;;;;22.27;8.85;;;14.50;99.90;;;;;;4928365;29;20507;-74
2023/03/09 10:02:33;;;;;;;31.25;8.38;;;14.70;99.90;;;;;;4936861;28;20035;-74
2023/03/09 10:05:17;;;;;;;29.05;7.93;;;14.90;99.90;;;;;;4935881;29;20035;-74
2023/03/09 10:07:44;;;;;;;29.23;8.43;;;14.90;99.90;;;;;;4943978;29;20035;-73
2023/03/09 10:10:14;;;;;;;29.30;8.80;;;14.90;99.90;;;;;;4954243;29;20047;-73
2023/03/09 10:12:41;;;;;;;33.15;8.93;;;15.00;99.90;;;;;;4946065;29;20397;-74
2023/03/09 10:15:12;;;;;;;29.95;9.95;;;14.90;99.90;;;;;;4936724;28;20039;-74
2023/03/09 10:17:41;;;;;;;25.52;9.02;;;14.90;99.90;;;;;;4936960;29;20465;-74
2023/03/09 10:20:46;;;;;;;25.10;7.50;;;14.90;99.90;;;;;;4917346;29;20038;-73
2023/03/09 10:23:20;;;;;;;22.92;7.35;;;15.00;99.90;;;;;;4934961;29;20031;-73
2023/03/09 10:25:47;;;;;;;27.92;7.60;;;15.00;99.90;;;;;;4935077;29;20505;-73
2023/03/09 10:28:16;;;;;;;28.48;8.10;;;14.90;99.90;;;;;;4932586;29;20383;-73
2023/03/09 10:30:53;;;;;;;31.25;8.98;;;14.90;99.90;;;;;;4932991;29;20185;-73
2023/03/09 10:33:19;;;;;;;31.90;10.82;;;14.90;99.90;;;;;;4933150;29;20034;-73
2023/03/09 10:36:05;;;;;;;33.35;11.27;;;14.80;99.90;;;;;;4934105;29;20032;-74
2023/03/09 10:38:31;;;;;;;33.28;10.40;;;14.80;99.90;;;;;;4934613;29;20031;-73
2023/03/09 10:40:57;;;;;;;33.08;10.18;;;14.80;99.90;;;;;;4933448;29;20385;-73
2023/03/09 10:43:28;;;;;;;25.95;9.48;;;14.80;99.90;;;;;;4931621;29;20027;-73
2023/03/09 10:45:55;;;;;;;28.25;10.10;;;14.80;99.90;;;;;;4929267;28;20397;-73
2023/03/09 10:48:22;;;;;;;31.85;9.30;;;14.70;99.90;;;;;;4916312;29;20495;-73
2023/03/09 10:50:56;;;;;;;31.13;9.68;;;14.70;99.90;;;;;;4933427;29;20040;-73
2023/03/09 10:53:27;;;;;;;26.33;9.18;;;14.70;99.90;;;;;;4929127;29;20036;-74
2023/03/09 10:55:54;;;;;;;;;;;14.60;99.90;;;;;;4933907;29;20047;-73
2023/03/09 10:58:23;;;;;;;29.52;9.48;;;14.60;99.90;;;;;;4932491;29;19910;-74
2023/03/09 11:00:52;;;;;;;36.38;10.60;;;14.60;99.90;;;;;;4935564;28;20420;-73
2023/03/09 11:03:23;;;;;;;30.23;8.52;;;14.70;99.90;;;;;;4938223;29;20043;-73
2023/03/09 11:05:49;;;;;;;;;;;14.70;99.90;;;;;;4932925;29;20023;-73
2023/03/09 11:08:23;;;;;;;31.42;9.43;;;14.80;99.90;;;;;;4932464;29;20372;-73
2023/03/09 11:11:00;;;;;;;34.92;10.23;;;14.80;99.90;;;;;;4857967;29;1279222;-73
2023/03/09 11:13:27;;;;;;;38.17;9.70;;;14.90;99.90;;;;;;4951715;29;20051;-73
2023/03/09 11:16:19;;;;;;;37.40;10.95;;;14.90;99.90;;;;;;4945464;28;20420;-73
2023/03/09 11:18:45;;;;;;;32.00;10.05;;;14.90;99.90;;;;;;4922413;29;20043;-73
2023/03/09 11:21:21;;;;;;;27.65;10.15;;;14.90;99.90;;;;;;4933874;29;20035;-73
2023/03/09 11:23:48;;;;;;;25.88;9.95;;;14.90;99.90;;;;;;4934035;29;20027;-73
2023/03/09 11:26:24;;;;;;;36.13;9.80;;;14.90;99.90;;;;;;4933229;29;20031;-74
2023/03/09 11:29:22;;;;;;;35.38;11.63;;;14.80;99.90;;;;;;4932555;29;20028;-74
2023/03/09 11:31:48;;;;;;;39.97;12.13;;;14.70;99.90;;;;;;4920176;29;20046;-75
2023/03/09 11:34:27;;;;;;;34.50;14.73;;;14.60;99.90;;;;;;4917556;29;20503;-74
2023/03/09 11:36:59;;;;;;;27.67;12.00;;;14.50;99.90;;;;;;4928700;29;20047;-74
2023/03/09 11:39:35;;;;;;;;;;;14.60;99.90;;;;;;4933306;29;20500;-74
2023/03/09 11:42:04;;;;;;;22.02;9.93;;;14.50;99.90;;;;;;4932868;29;19910;-74
2023/03/09 11:44:35;;;;;;;19.38;10.10;;;14.60;99.90;;;;;;4931763;29;20031;-74
2023/03/09 11:47:18;;;;;;;17.13;9.93;;;14.60;99.90;;;;;;4917302;29;20046;-74
2023/03/09 11:49:44;;;;;;;16.15;10.90;;;14.70;99.90;;;;;;4908902;29;20492;-74
2023/03/09 11:52:17;;;;;;;19.42;9.35;;;14.80;99.90;;;;;;4931848;29;20040;-74
2023/03/09 11:54:43;;;;;;;20.15;9.02;;;14.90;99.90;;;;;;4911966;29;20024;-74
2023/03/09 11:57:12;;;;;;;16.95;7.10;;;15.00;99.90;;;;;;4913048;29;20047;-74
2023/03/09 11:59:59;;;;;;;19.40;8.35;;;15.00;99.90;;;;;;4912833;29;20036;-74
2023/03/09 12:02:38;;;;;;;20.35;8.65;;;15.00;99.90;;;;;;4914356;28;20027;-74
2023/03/09 12:05:09;;;;;;;18.30;9.68;;;14.90;99.90;;;;;;4931462;29;20051;-74
2023/03/09 12:07:40;;;;;;;21.48;8.68;;;15.00;99.90;;;;;;4900299;29;20051;-74
2023/03/09 12:10:33;;;;;;;26.50;9.23;;;15.00;99.90;;;;;;4931684;29;20047;-73
2023/03/09 12:13:19;;;;;;;20.88;8.45;;;15.00;99.90;;;;;;4931466;29;20034;-74
2023/03/09 12:15:59;;;;;;;25.55;9.40;;;15.00;99.90;;;;;;4917429;28;20035;-74
2023/03/09 12:18:28;;;;;;;22.50;9.07;;;15.00;99.90;;;;;;4930366;29;20046;-74
2023/03/09 12:20:55;;;;;;;27.98;10.05;;;15.10;99.90;;;;;;4918222;29;20036;-74
2023/03/09 12:23:37;;;;;;;22.48;8.73;;;15.20;99.90;;;;;;4935309;29;20031;-74
2023/03/09 12:26:24;;;;;;;24.02;9.15;;;15.30;99.90;;;;;;4936613;29;20412;-73
2023/03/09 12:29:16;;;;;;;27.35;9.30;;;15.30;99.90;;;;;;4925024;29;20405;-73
2023/03/09 12:31:43;;;;;;;30.77;9.95;;;15.20;99.90;;;;;;4928359;29;20040;-74
2023/03/09 12:34:12;;;;;;;20.63;9.70;;;15.10;99.90;;;;;;4919289;29;20465;-74
2023/03/09 12:36:41;;;;;;;23.80;9.23;;;15.10;99.90;;;;;;4935792;29;20482;-74
2023/03/09 12:39:26;;;;;;;22.70;9.90;;;15.00;99.90;;;;;;4934351;29;20047;-74
2023/03/09 12:41:59;;;;;;;22.60;9.38;;;14.90;99.90;;;;;;4927775;29;20027;-73